»·PEaware :: ACA128 CYVR-KSAN

ACA128 :: CYVR-KSAN

FLIGHT INFORMATION

Flight Status: Arrived
Operator:
Air Canada
More flights by this operator :: More flights under this callsign
Pilot: Konrad W. (32064)
Aircraft: AIRBUS A320
(A320)
More flights by this aircraft type
Origin: CYVR Vancouver Intl
Canada
Destination: KSAN San Diego Intl-Lindbergh
United States
More flights between these airports :: More routes between these airports
Route: YVR1 CFKFL J5 EHF HUULK COMIX2
File this flight plan on PilotEdge
Remarks:
Altitude:
(Current/Filed)
37,000ft
Speed:
(Current/Filed)
430kts
Departed: 09-Dec-20 08:46 PM
Arrived: 09-Dec-20 11:34 PM
Distance/Time
Traveled:
1023nm/2:47
Distance/Time
To Go:
Arrived

Flight Plot

Page will automatically refresh every two minutes.

Flight plan parsing failed; only flown route is shown


Map Options




Map Legend


Flown Route
Filed Route
Departure Airport
Arrival Airport
Navaid (VOR, NDB)
Fix

Horizontal Profiles

Position Reports

Time Latitude Longitude Heading Altitude Ground
Speed
09-Dec-20 20:35 49.195697 -123.182253 235 22ft 0kts
09-Dec-20 20:36 49.195697 -123.182253 235 22ft 0kts
09-Dec-20 20:37 49.195697 -123.182253 235 22ft 0kts
09-Dec-20 20:38 49.195812 -123.182002 235 22ft 2kts
09-Dec-20 20:39 49.196036 -123.181619 292 22ft 0kts
09-Dec-20 20:40 49.196868 -123.183517 280 22ft 24kts
09-Dec-20 20:41 49.192546 -123.187230 192 22ft 27kts
09-Dec-20 20:42 49.188882 -123.178591 98 22ft 31kts
09-Dec-20 20:43 49.186472 -123.162135 150 22ft 28kts
09-Dec-20 20:44 49.185084 -123.164191 279 22ft 34kts
09-Dec-20 20:45 49.193429 -123.230712 290 1160ft 219kts
09-Dec-20 20:46 49.224758 -123.229961 164 2088ft 235kts
09-Dec-20 20:47 49.166137 -123.260396 156 1462ft 219kts
09-Dec-20 20:48 49.115823 -123.203390 146 3941ft 235kts
09-Dec-20 20:49 49.056290 -123.150563 155 6371ft 266kts
09-Dec-20 20:50 48.986653 -123.108315 163 8873ft 279kts
09-Dec-20 20:51 48.912790 -123.066549 163 11396ft 290kts
09-Dec-20 20:52 48.836286 -123.023319 164 13915ft 303kts
09-Dec-20 20:53 48.756490 -122.981147 165 16447ft 313kts
09-Dec-20 20:54 48.672495 -122.936708 166 18956ft 331kts
09-Dec-20 20:55 48.583051 -122.889951 167 21480ft 353kts
09-Dec-20 20:56 48.488206 -122.840802 167 23210ft 372kts
09-Dec-20 20:57 48.391818 -122.791097 167 23385ft 367kts
09-Dec-20 20:58 48.295622 -122.741963 167 23450ft 368kts
09-Dec-20 20:59 48.199370 -122.693001 168 23448ft 364kts
09-Dec-20 21:00 48.105894 -122.645301 168 24785ft 354kts
09-Dec-20 21:01 48.011978 -122.597760 168 26944ft 364kts
09-Dec-20 21:02 47.915268 -122.549060 168 28784ft 377kts
09-Dec-20 21:03 47.813400 -122.498007 168 30257ft 396kts
09-Dec-20 21:04 47.707701 -122.445085 168 31765ft 405kts
09-Dec-20 21:05 47.601154 -122.391948 168 33284ft 411kts
09-Dec-20 21:06 47.493960 -122.338673 168 34758ft 415kts
09-Dec-20 21:07 47.384754 -122.289629 171 36262ft 414kts
09-Dec-20 21:08 47.274178 -122.245208 172 37314ft 422kts
09-Dec-20 21:09 47.157184 -122.199282 171 37394ft 455kts
09-Dec-20 21:10 47.031844 -122.149933 171 37401ft 475kts
09-Dec-20 21:11 46.906401 -122.100352 171 37379ft 467kts
09-Dec-20 21:12 46.781642 -122.051616 172 37401ft 461kts
09-Dec-20 21:13 46.659077 -122.004033 172 37395ft 456kts
09-Dec-20 21:14 46.537341 -121.957165 173 37404ft 456kts
09-Dec-20 21:15 46.415736 -121.910163 173 37347ft 449kts
09-Dec-20 21:16 46.294837 -121.863365 173 37402ft 450kts
09-Dec-20 21:17 46.174411 -121.817614 174 37397ft 450kts
09-Dec-20 21:18 46.054214 -121.772017 174 37405ft 449kts
09-Dec-20 21:19 45.933864 -121.726771 174 37402ft 449kts
09-Dec-20 21:20 45.813553 -121.681747 174 37400ft 450kts
09-Dec-20 21:22 45.692843 -121.636605 174 37378ft 449kts
09-Dec-20 21:23 45.573141 -121.591951 174 37423ft 447kts
09-Dec-20 21:24 45.453059 -121.547520 174 37448ft 445kts
09-Dec-20 21:25 45.334283 -121.503694 174 37384ft 441kts
09-Dec-20 21:26 45.216364 -121.460324 175 37393ft 437kts
09-Dec-20 21:27 45.099335 -121.417706 174 37393ft 438kts
09-Dec-20 21:28 44.981261 -121.374682 174 37407ft 437kts
09-Dec-20 21:29 44.864250 -121.332115 174 37388ft 437kts
09-Dec-20 21:30 44.747183 -121.289815 174 37400ft 437kts
09-Dec-20 21:31 44.629926 -121.247738 174 37405ft 436kts
09-Dec-20 21:32 44.512973 -121.205679 174 37396ft 437kts
09-Dec-20 21:33 44.395288 -121.163528 174 37396ft 438kts
09-Dec-20 21:34 44.278282 -121.121847 174 37329ft 438kts
09-Dec-20 21:35 44.160361 -121.080104 174 37325ft 441kts
09-Dec-20 21:36 44.042077 -121.038459 174 37343ft 442kts
09-Dec-20 21:37 43.923120 -120.996721 174 37345ft 443kts
09-Dec-20 21:38 43.803616 -120.954980 173 37352ft 447kts
09-Dec-20 21:38 43.703686 -120.920192 173 37352ft 445kts
09-Dec-20 21:40 43.563074 -120.871384 173 37331ft 446kts
09-Dec-20 21:41 43.442962 -120.829862 173 37338ft 449kts
09-Dec-20 21:41 43.342556 -120.795298 173 37332ft 448kts
09-Dec-20 21:43 43.201454 -120.746940 172 37330ft 450kts
09-Dec-20 21:43 43.100647 -120.712520 172 37334ft 450kts
09-Dec-20 21:44 42.979714 -120.671374 172 37332ft 452kts
09-Dec-20 21:45 42.857711 -120.629999 172 37335ft 452kts
09-Dec-20 21:46 42.735751 -120.588832 172 37334ft 454kts
09-Dec-20 21:47 42.613515 -120.547706 172 37319ft 456kts
09-Dec-20 21:48 42.491017 -120.507142 172 37299ft 455kts
09-Dec-20 21:49 42.367954 -120.469811 173 37299ft 455kts
09-Dec-20 21:50 42.244826 -120.433039 172 37300ft 456kts
09-Dec-20 21:51 42.121282 -120.396249 172 37299ft 456kts
09-Dec-20 21:52 41.997743 -120.359601 172 37299ft 457kts
09-Dec-20 21:53 41.874238 -120.323102 172 37300ft 457kts
09-Dec-20 21:54 41.750552 -120.286619 171 37282ft 458kts
09-Dec-20 21:55 41.626563 -120.250298 171 37262ft 456kts
09-Dec-20 21:56 41.502177 -120.213920 171 37272ft 460kts
09-Dec-20 21:57 41.378195 -120.177800 171 37255ft 461kts
09-Dec-20 21:58 41.253442 -120.141507 171 37247ft 460kts
09-Dec-20 21:59 41.128842 -120.105428 171 37233ft 461kts
09-Dec-20 22:00 41.003610 -120.069488 170 37282ft 465kts
09-Dec-20 22:01 40.877599 -120.033342 170 37296ft 465kts
09-Dec-20 22:02 40.752061 -119.997535 170 37265ft 460kts
09-Dec-20 22:03 40.627101 -119.962081 170 37270ft 462kts
09-Dec-20 22:04 40.502528 -119.926785 169 37252ft 460kts
09-Dec-20 22:05 40.378018 -119.891622 170 37247ft 458kts
09-Dec-20 22:06 40.254064 -119.856714 170 37275ft 458kts
09-Dec-20 22:07 40.129966 -119.821901 170 37269ft 457kts
09-Dec-20 22:08 40.006759 -119.787500 170 37256ft 455kts
09-Dec-20 22:09 39.883352 -119.753188 170 37251ft 453kts
09-Dec-20 22:10 39.760899 -119.719242 170 37230ft 452kts
09-Dec-20 22:11 39.639240 -119.685654 170 37234ft 449kts
09-Dec-20 22:12 39.517447 -119.655382 174 37248ft 448kts
09-Dec-20 22:13 39.395342 -119.636226 175 37232ft 445kts
09-Dec-20 22:14 39.272945 -119.618538 176 37242ft 443kts
09-Dec-20 22:15 39.151034 -119.600959 175 37244ft 442kts
09-Dec-20 22:16 39.028850 -119.583408 175 37253ft 443kts
09-Dec-20 22:17 38.907032 -119.565917 175 37244ft 441kts
09-Dec-20 22:18 38.786075 -119.548601 175 37214ft 440kts
09-Dec-20 22:19 38.664569 -119.531206 175 37160ft 442kts
09-Dec-20 22:20 38.542859 -119.513955 175 37138ft 442kts
09-Dec-20 22:21 38.420225 -119.496554 174 37124ft 443kts
09-Dec-20 22:22 38.297946 -119.479282 174 37131ft 444kts
09-Dec-20 22:23 38.175193 -119.462178 174 37151ft 446kts
09-Dec-20 22:24 38.052301 -119.444868 174 37149ft 446kts
09-Dec-20 22:25 37.929345 -119.427546 174 37147ft 446kts
09-Dec-20 22:26 37.806593 -119.410529 174 37132ft 444kts
09-Dec-20 22:27 37.684982 -119.393609 174 37114ft 441kts
09-Dec-20 22:28 37.563723 -119.376739 173 37121ft 439kts
09-Dec-20 22:29 37.443004 -119.360211 173 37127ft 436kts
09-Dec-20 22:30 37.323923 -119.343916 173 37115ft 435kts
09-Dec-20 22:31 37.204164 -119.327465 173 37118ft 434kts
09-Dec-20 22:32 37.084976 -119.311163 173 37106ft 434kts
09-Dec-20 22:33 36.965394 -119.294856 173 37113ft 434kts
09-Dec-20 22:34 36.845727 -119.278506 173 37103ft 433kts
09-Dec-20 22:35 36.740621 -119.264418 173 37105ft 433kts
09-Dec-20 22:36 36.621767 -119.248418 173 37119ft 433kts
09-Dec-20 22:37 36.502126 -119.232304 173 37116ft 436kts
09-Dec-20 22:38 36.381872 -119.216157 173 37080ft 438kts
09-Dec-20 22:39 36.260641 -119.199930 172 37078ft 443kts
09-Dec-20 22:40 36.138319 -119.183613 172 37084ft 447kts
09-Dec-20 22:41 36.014480 -119.167147 172 37088ft 450kts
09-Dec-20 22:42 35.890162 -119.150669 172 37087ft 453kts
09-Dec-20 22:43 35.764903 -119.134126 172 37087ft 456kts
09-Dec-20 22:44 35.639064 -119.117560 172 37087ft 458kts
09-Dec-20 22:45 35.513444 -119.100426 168 37073ft 455kts
09-Dec-20 22:46 35.395954 -119.047838 155 37069ft 450kts
09-Dec-20 22:47 35.283997 -118.985488 155 37069ft 441kts
09-Dec-20 22:48 35.173131 -118.923740 155 37113ft 438kts
09-Dec-20 22:49 35.063542 -118.863039 155 37111ft 435kts
09-Dec-20 22:50 34.953606 -118.802341 155 37104ft 436kts
09-Dec-20 22:51 34.845592 -118.742852 155 37106ft 435kts
09-Dec-20 22:52 34.736021 -118.682640 155 36464ft 433kts
09-Dec-20 22:53 34.629867 -118.624524 154 34987ft 412kts
09-Dec-20 22:54 34.531527 -118.560313 149 33513ft 394kts
09-Dec-20 22:55 34.438815 -118.494618 149 32028ft 385kts
09-Dec-20 22:56 34.348081 -118.430034 149 30496ft 375kts
09-Dec-20 22:57 34.254984 -118.364023 149 29054ft 393kts
09-Dec-20 22:58 34.160853 -118.297480 149 27590ft 399kts
09-Dec-20 22:59 34.064938 -118.229806 149 26088ft 405kts
09-Dec-20 23:00 33.967943 -118.161558 149 24597ft 409kts
09-Dec-20 23:01 33.870039 -118.093029 150 23110ft 416kts
09-Dec-20 23:02 33.771091 -118.026681 150 21616ft 387kts
09-Dec-20 23:03 33.682289 -117.968064 149 20127ft 361kts
09-Dec-20 23:04 33.599883 -117.913648 149 18642ft 335kts
09-Dec-20 23:05 33.519775 -117.860011 148 17147ft 329kts
09-Dec-20 23:06 33.443224 -117.803527 141 15655ft 323kts
09-Dec-20 23:07 33.375227 -117.735756 137 15038ft 320kts
09-Dec-20 23:08 33.309225 -117.665423 137 15021ft 320kts
09-Dec-20 23:09 33.243208 -117.595144 137 15020ft 319kts
09-Dec-20 23:10 33.177117 -117.525466 137 14532ft 321kts
09-Dec-20 23:11 33.109667 -117.460798 142 12743ft 308kts
09-Dec-20 23:12 33.041177 -117.403340 143 10956ft 300kts
09-Dec-20 23:13 32.973791 -117.347278 142 9276ft 293kts
09-Dec-20 23:14 32.909709 -117.293568 142 7950ft 281kts
09-Dec-20 23:15 32.847477 -117.241643 143 6457ft 269kts
09-Dec-20 23:17 32.783377 -117.213554 169 6032ft 230kts
09-Dec-20 23:18 32.752639 -117.165169 92 5972ft 214kts
09-Dec-20 23:19 32.737274 -117.095609 102 5355ft 220kts
09-Dec-20 23:20 32.726372 -117.028395 99 4858ft 200kts
09-Dec-20 23:21 32.717106 -116.962227 98 3654ft 205kts
09-Dec-20 23:22 32.676158 -116.927351 186 2901ft 197kts
09-Dec-20 23:23 32.669230 -116.972572 321 2410ft 177kts
09-Dec-20 23:24 32.692874 -117.018668 284 2017ft 164kts
09-Dec-20 23:25 32.704531 -117.070018 286 1617ft 163kts
09-Dec-20 23:26 32.716897 -117.120985 286 1014ft 158kts
09-Dec-20 23:27 32.728849 -117.169847 284 258ft 152kts
09-Dec-20 23:28 32.739151 -117.213496 283 384ft 137kts
09-Dec-20 23:29 32.763676 -117.228142 33 1110ft 140kts
09-Dec-20 23:30 32.766023 -117.183245 112 1448ft 165kts
09-Dec-20 23:31 32.746026 -117.135280 122 1482ft 162kts
09-Dec-20 23:32 32.725455 -117.151456 279 536ft 148kts
09-Dec-20 23:33 32.734639 -117.194181 281 25ft 93kts
09-Dec-20 23:33 32.735068 -117.200150 285 25ft 0kts

Navigation Log

Ident Type
Flight plan parsing failed, navigation log unavailable